sensor_id;sensor_type;location;lat;lon;timestamp;P1;durP1;ratioP1;P2;durP2;ratioP2
51190;SDS011;37253;48.736;9.294;2022-07-22T00:00:15;4.07;;;3.65;;
51190;SDS011;37253;48.736;9.294;2022-07-22T00:02:16;5.97;;;3.95;;
51190;SDS011;37253;48.736;9.294;2022-07-22T00:04:16;6.03;;;4.03;;
51190;SDS011;37253;48.736;9.294;2022-07-22T00:06:16;6.70;;;3.83;;
51190;SDS011;37253;48.736;9.294;2022-07-22T00:08:17;4.63;;;3.90;;
51190;SDS011;37253;48.736;9.294;2022-07-22T00:10:17;4.88;;;4.00;;
51190;SDS011;37253;48.736;9.294;2022-07-22T00:12:17;4.45;;;3.85;;
51190;SDS011;37253;48.736;9.294;2022-07-22T00:14:18;4.75;;;4.28;;
51190;SDS011;37253;48.736;9.294;2022-07-22T00:16:18;5.85;;;3.92;;
51190;SDS011;37253;48.736;9.294;2022-07-22T00:18:18;7.05;;;4.10;;
51190;SDS011;37253;48.736;9.294;2022-07-22T00:20:19;9.98;;;4.28;;
51190;SDS011;37253;48.736;9.294;2022-07-22T00:22:19;9.48;;;4.40;;
51190;SDS011;37253;48.736;9.294;2022-07-22T00:24:20;6.10;;;4.30;;
51190;SDS011;37253;48.736;9.294;2022-07-22T00:26:20;10.07;;;4.55;;
51190;SDS011;37253;48.736;9.294;2022-07-22T00:28:20;5.38;;;3.70;;
51190;SDS011;37253;48.736;9.294;2022-07-22T00:30:21;5.68;;;3.90;;
51190;SDS011;37253;48.736;9.294;2022-07-22T00:32:22;4.40;;;3.92;;
51190;SDS011;37253;48.736;9.294;2022-07-22T00:34:22;5.47;;;4.03;;
51190;SDS011;37253;48.736;9.294;2022-07-22T00:36:23;5.00;;;3.88;;
51190;SDS011;37253;48.736;9.294;2022-07-22T00:38:23;9.05;;;3.90;;
51190;SDS011;37253;48.736;9.294;2022-07-22T00:40:23;6.25;;;3.80;;
51190;SDS011;37253;48.736;9.294;2022-07-22T00:42:24;7.05;;;3.78;;
51190;SDS011;37253;48.736;9.294;2022-07-22T00:44:24;4.93;;;3.70;;
51190;SDS011;37253;48.736;9.294;2022-07-22T00:46:24;4.72;;;3.90;;
51190;SDS011;37253;48.736;9.294;2022-07-22T00:48:26;5.22;;;4.10;;
51190;SDS011;37253;48.736;9.294;2022-07-22T00:50:26;5.32;;;4.07;;
51190;SDS011;37253;48.736;9.294;2022-07-22T00:52:26;5.25;;;4.07;;
51190;SDS011;37253;48.736;9.294;2022-07-22T00:54:27;8.38;;;3.95;;
51190;SDS011;37253;48.736;9.294;2022-07-22T00:56:28;5.05;;;4.07;;
51190;SDS011;37253;48.736;9.294;2022-07-22T00:58:30;4.40;;;3.95;;
51190;SDS011;37253;48.736;9.294;2022-07-22T01:00:30;5.25;;;4.00;;
51190;SDS011;37253;48.736;9.294;2022-07-22T01:02:31;8.65;;;3.90;;
51190;SDS011;37253;48.736;9.294;2022-07-22T01:04:31;9.52;;;4.28;;
51190;SDS011;37253;48.736;9.294;2022-07-22T01:06:31;6.70;;;4.10;;
51190;SDS011;37253;48.736;9.294;2022-07-22T01:08:32;4.85;;;3.95;;
51190;SDS011;37253;48.736;9.294;2022-07-22T01:10:33;8.68;;;4.28;;
51190;SDS011;37253;48.736;9.294;2022-07-22T01:12:34;5.20;;;4.15;;
51190;SDS011;37253;48.736;9.294;2022-07-22T01:14:34;6.28;;;4.05;;
51190;SDS011;37253;48.736;9.294;2022-07-22T01:16:34;4.68;;;4.03;;
51190;SDS011;37253;48.736;9.294;2022-07-22T01:18:36;5.55;;;4.07;;
51190;SDS011;37253;48.736;9.294;2022-07-22T01:20:37;6.40;;;3.75;;
51190;SDS011;37253;48.736;9.294;2022-07-22T01:22:37;4.63;;;4.07;;
51190;SDS011;37253;48.736;9.294;2022-07-22T01:24:38;4.82;;;4.40;;
51190;SDS011;37253;48.736;9.294;2022-07-22T01:26:38;5.10;;;4.07;;
51190;SDS011;37253;48.736;9.294;2022-07-22T01:28:39;6.95;;;4.38;;
51190;SDS011;37253;48.736;9.294;2022-07-22T01:30:39;9.50;;;4.70;;
51190;SDS011;37253;48.736;9.294;2022-07-22T01:32:40;5.50;;;4.05;;
51190;SDS011;37253;48.736;9.294;2022-07-22T01:34:40;4.20;;;3.67;;
51190;SDS011;37253;48.736;9.294;2022-07-22T01:36:43;4.18;;;3.78;;
51190;SDS011;37253;48.736;9.294;2022-07-22T01:38:43;9.07;;;4.40;;
51190;SDS011;37253;48.736;9.294;2022-07-22T01:40:44;5.65;;;4.35;;
51190;SDS011;37253;48.736;9.294;2022-07-22T01:42:44;5.25;;;4.32;;
51190;SDS011;37253;48.736;9.294;2022-07-22T01:44:45;4.82;;;4.13;;
51190;SDS011;37253;48.736;9.294;2022-07-22T01:46:45;5.38;;;3.83;;
51190;SDS011;37253;48.736;9.294;2022-07-22T01:48:45;5.35;;;4.38;;
51190;SDS011;37253;48.736;9.294;2022-07-22T01:50:46;8.35;;;4.40;;
51190;SDS011;37253;48.736;9.294;2022-07-22T01:52:46;6.47;;;4.00;;
51190;SDS011;37253;48.736;9.294;2022-07-22T01:54:46;4.03;;;3.55;;
51190;SDS011;37253;48.736;9.294;2022-07-22T01:56:47;5.38;;;3.90;;
51190;SDS011;37253;48.736;9.294;2022-07-22T01:58:47;6.85;;;4.30;;
51190;SDS011;37253;48.736;9.294;2022-07-22T02:00:47;4.80;;;4.25;;
51190;SDS011;37253;48.736;9.294;2022-07-22T02:02:48;7.65;;;3.90;;
51190;SDS011;37253;48.736;9.294;2022-07-22T02:04:48;8.65;;;5.18;;
51190;SDS011;37253;48.736;9.294;2022-07-22T02:06:48;5.82;;;3.97;;
51190;SDS011;37253;48.736;9.294;2022-07-22T02:08:49;4.47;;;3.80;;
51190;SDS011;37253;48.736;9.294;2022-07-22T02:10:49;9.75;;;4.18;;
51190;SDS011;37253;48.736;9.294;2022-07-22T02:12:50;4.97;;;4.50;;
51190;SDS011;37253;48.736;9.294;2022-07-22T02:14:50;4.47;;;4.05;;
51190;SDS011;37253;48.736;9.294;2022-07-22T02:16:50;5.72;;;3.88;;
51190;SDS011;37253;48.736;9.294;2022-07-22T02:18:51;6.53;;;3.70;;
51190;SDS011;37253;48.736;9.294;2022-07-22T02:20:52;11.18;;;4.55;;
51190;SDS011;37253;48.736;9.294;2022-07-22T02:22:52;7.15;;;4.20;;
51190;SDS011;37253;48.736;9.294;2022-07-22T02:24:52;5.45;;;4.50;;
51190;SDS011;37253;48.736;9.294;2022-07-22T02:26:53;6.03;;;4.28;;
51190;SDS011;37253;48.736;9.294;2022-07-22T02:28:53;7.05;;;4.10;;
51190;SDS011;37253;48.736;9.294;2022-07-22T02:30:54;6.68;;;4.53;;
51190;SDS011;37253;48.736;9.294;2022-07-22T02:32:54;5.22;;;4.15;;
51190;SDS011;37253;48.736;9.294;2022-07-22T02:34:54;4.20;;;3.90;;
51190;SDS011;37253;48.736;9.294;2022-07-22T02:36:55;6.30;;;4.50;;
51190;SDS011;37253;48.736;9.294;2022-07-22T02:38:55;10.48;;;5.13;;
51190;SDS011;37253;48.736;9.294;2022-07-22T02:40:55;5.22;;;4.57;;
51190;SDS011;37253;48.736;9.294;2022-07-22T02:42:56;5.72;;;4.20;;
51190;SDS011;37253;48.736;9.294;2022-07-22T02:44:56;5.28;;;4.28;;
51190;SDS011;37253;48.736;9.294;2022-07-22T02:46:56;5.82;;;4.50;;
51190;SDS011;37253;48.736;9.294;2022-07-22T02:48:57;5.82;;;4.50;;
51190;SDS011;37253;48.736;9.294;2022-07-22T02:50:57;5.20;;;4.35;;
51190;SDS011;37253;48.736;9.294;2022-07-22T02:52:58;5.47;;;3.83;;
51190;SDS011;37253;48.736;9.294;2022-07-22T02:54:58;8.25;;;4.78;;
51190;SDS011;37253;48.736;9.294;2022-07-22T02:56:58;5.47;;;4.35;;
51190;SDS011;37253;48.736;9.294;2022-07-22T02:58:59;8.75;;;4.47;;
51190;SDS011;37253;48.736;9.294;2022-07-22T03:00:59;4.75;;;4.20;;
51190;SDS011;37253;48.736;9.294;2022-07-22T03:02:59;6.13;;;4.43;;
51190;SDS011;37253;48.736;9.294;2022-07-22T03:05:00;4.70;;;4.25;;
51190;SDS011;37253;48.736;9.294;2022-07-22T03:07:00;5.70;;;4.07;;
51190;SDS011;37253;48.736;9.294;2022-07-22T03:09:01;7.03;;;4.25;;
51190;SDS011;37253;48.736;9.294;2022-07-22T03:11:01;9.32;;;4.32;;
51190;SDS011;37253;48.736;9.294;2022-07-22T03:13:02;4.53;;;4.13;;
51190;SDS011;37253;48.736;9.294;2022-07-22T03:15:03;6.43;;;3.78;;
51190;SDS011;37253;48.736;9.294;2022-07-22T03:17:04;5.88;;;4.68;;
51190;SDS011;37253;48.736;9.294;2022-07-22T03:19:04;8.00;;;4.72;;
51190;SDS011;37253;48.736;9.294;2022-07-22T03:21:04;6.75;;;5.05;;
51190;SDS011;37253;48.736;9.294;2022-07-22T03:23:05;5.68;;;4.25;;
51190;SDS011;37253;48.736;9.294;2022-07-22T03:25:05;6.60;;;4.60;;
51190;SDS011;37253;48.736;9.294;2022-07-22T03:27:05;5.50;;;4.30;;
51190;SDS011;37253;48.736;9.294;2022-07-22T03:29:06;5.75;;;4.65;;
51190;SDS011;37253;48.736;9.294;2022-07-22T03:31:06;8.00;;;4.57;;
51190;SDS011;37253;48.736;9.294;2022-07-22T03:33:07;4.80;;;4.28;;
51190;SDS011;37253;48.736;9.294;2022-07-22T03:35:07;5.15;;;4.65;;
51190;SDS011;37253;48.736;9.294;2022-07-22T03:37:07;6.20;;;4.15;;
51190;SDS011;37253;48.736;9.294;2022-07-22T03:39:08;5.20;;;4.13;;
51190;SDS011;37253;48.736;9.294;2022-07-22T03:41:08;7.90;;;4.72;;
51190;SDS011;37253;48.736;9.294;2022-07-22T03:43:08;5.75;;;4.18;;
51190;SDS011;37253;48.736;9.294;2022-07-22T03:45:09;8.70;;;4.68;;
51190;SDS011;37253;48.736;9.294;2022-07-22T03:47:09;6.65;;;4.60;;
51190;SDS011;37253;48.736;9.294;2022-07-22T03:49:09;6.13;;;4.85;;
51190;SDS011;37253;48.736;9.294;2022-07-22T03:51:10;6.20;;;4.47;;
51190;SDS011;37253;48.736;9.294;2022-07-22T03:53:10;7.03;;;4.43;;
51190;SDS011;37253;48.736;9.294;2022-07-22T03:55:10;10.25;;;4.68;;
51190;SDS011;37253;48.736;9.294;2022-07-22T03:57:11;5.00;;;4.38;;
51190;SDS011;37253;48.736;9.294;2022-07-22T03:59:11;9.70;;;4.93;;
51190;SDS011;37253;48.736;9.294;2022-07-22T04:01:11;5.63;;;4.30;;
51190;SDS011;37253;48.736;9.294;2022-07-22T04:03:12;9.73;;;4.50;;
51190;SDS011;37253;48.736;9.294;2022-07-22T04:05:12;6.25;;;4.40;;
51190;SDS011;37253;48.736;9.294;2022-07-22T04:07:12;6.60;;;4.90;;
51190;SDS011;37253;48.736;9.294;2022-07-22T04:09:13;6.47;;;4.80;;
51190;SDS011;37253;48.736;9.294;2022-07-22T04:11:13;8.00;;;4.70;;
51190;SDS011;37253;48.736;9.294;2022-07-22T04:13:13;6.32;;;4.78;;
51190;SDS011;37253;48.736;9.294;2022-07-22T04:15:13;7.28;;;5.07;;
51190;SDS011;37253;48.736;9.294;2022-07-22T04:17:14;8.43;;;4.70;;
51190;SDS011;37253;48.736;9.294;2022-07-22T04:19:14;5.90;;;4.60;;
51190;SDS011;37253;48.736;9.294;2022-07-22T04:21:15;7.90;;;5.03;;
51190;SDS011;37253;48.736;9.294;2022-07-22T04:23:16;6.00;;;4.65;;
51190;SDS011;37253;48.736;9.294;2022-07-22T04:25:16;8.43;;;4.70;;
51190;SDS011;37253;48.736;9.294;2022-07-22T04:27:16;8.48;;;5.30;;
51190;SDS011;37253;48.736;9.294;2022-07-22T04:29:17;6.72;;;4.70;;
51190;SDS011;37253;48.736;9.294;2022-07-22T04:31:17;6.43;;;4.50;;
51190;SDS011;37253;48.736;9.294;2022-07-22T04:33:17;4.95;;;4.45;;
51190;SDS011;37253;48.736;9.294;2022-07-22T04:35:18;5.28;;;4.78;;
51190;SDS011;37253;48.736;9.294;2022-07-22T04:37:18;8.30;;;4.82;;
51190;SDS011;37253;48.736;9.294;2022-07-22T04:39:19;7.57;;;5.10;;
51190;SDS011;37253;48.736;9.294;2022-07-22T04:41:19;6.25;;;4.93;;
51190;SDS011;37253;48.736;9.294;2022-07-22T04:43:19;6.68;;;4.80;;
51190;SDS011;37253;48.736;9.294;2022-07-22T04:45:20;9.25;;;5.25;;
51190;SDS011;37253;48.736;9.294;2022-07-22T04:47:20;6.72;;;4.68;;
51190;SDS011;37253;48.736;9.294;2022-07-22T04:49:20;7.10;;;4.85;;
51190;SDS011;37253;48.736;9.294;2022-07-22T04:51:21;5.82;;;5.00;;
51190;SDS011;37253;48.736;9.294;2022-07-22T04:53:21;7.63;;;5.28;;
51190;SDS011;37253;48.736;9.294;2022-07-22T04:55:21;6.22;;;4.97;;
51190;SDS011;37253;48.736;9.294;2022-07-22T04:57:22;6.97;;;5.25;;
51190;SDS011;37253;48.736;9.294;2022-07-22T04:59:22;5.55;;;4.85;;
51190;SDS011;37253;48.736;9.294;2022-07-22T05:01:22;6.25;;;4.80;;
51190;SDS011;37253;48.736;9.294;2022-07-22T05:03:23;8.40;;;5.35;;
51190;SDS011;37253;48.736;9.294;2022-07-22T05:05:25;5.63;;;4.88;;
51190;SDS011;37253;48.736;9.294;2022-07-22T05:07:25;8.60;;;5.15;;
51190;SDS011;37253;48.736;9.294;2022-07-22T05:09:26;6.50;;;4.60;;
51190;SDS011;37253;48.736;9.294;2022-07-22T05:11:26;7.32;;;5.40;;
51190;SDS011;37253;48.736;9.294;2022-07-22T05:13:26;8.40;;;5.18;;
51190;SDS011;37253;48.736;9.294;2022-07-22T05:15:26;18.42;;;9.98;;
51190;SDS011;37253;48.736;9.294;2022-07-22T05:17:27;7.80;;;5.70;;
51190;SDS011;37253;48.736;9.294;2022-07-22T05:19:27;7.70;;;6.07;;
51190;SDS011;37253;48.736;9.294;2022-07-22T05:21:27;7.63;;;5.65;;
51190;SDS011;37253;48.736;9.294;2022-07-22T05:23:28;6.32;;;5.47;;
51190;SDS011;37253;48.736;9.294;2022-07-22T05:25:28;9.73;;;5.60;;
51190;SDS011;37253;48.736;9.294;2022-07-22T05:27:28;8.43;;;5.68;;
51190;SDS011;37253;48.736;9.294;2022-07-22T05:29:29;7.53;;;6.18;;
51190;SDS011;37253;48.736;9.294;2022-07-22T05:31:29;7.22;;;5.70;;
51190;SDS011;37253;48.736;9.294;2022-07-22T05:33:29;10.57;;;6.47;;
51190;SDS011;37253;48.736;9.294;2022-07-22T05:35:30;8.13;;;6.32;;
51190;SDS011;37253;48.736;9.294;2022-07-22T05:37:30;10.48;;;6.50;;
51190;SDS011;37253;48.736;9.294;2022-07-22T05:39:31;14.43;;;7.15;;
51190;SDS011;37253;48.736;9.294;2022-07-22T05:41:31;7.97;;;6.38;;
51190;SDS011;37253;48.736;9.294;2022-07-22T05:43:31;9.93;;;6.30;;
51190;SDS011;37253;48.736;9.294;2022-07-22T05:45:32;9.50;;;6.22;;
51190;SDS011;37253;48.736;9.294;2022-07-22T05:47:32;8.18;;;6.30;;
51190;SDS011;37253;48.736;9.294;2022-07-22T05:49:32;8.40;;;6.00;;
51190;SDS011;37253;48.736;9.294;2022-07-22T05:51:32;11.18;;;6.47;;
51190;SDS011;37253;48.736;9.294;2022-07-22T05:53:34;11.68;;;6.72;;
51190;SDS011;37253;48.736;9.294;2022-07-22T05:55:34;9.55;;;6.88;;
51190;SDS011;37253;48.736;9.294;2022-07-22T05:57:35;7.22;;;6.10;;
51190;SDS011;37253;48.736;9.294;2022-07-22T05:59:36;9.93;;;7.28;;
51190;SDS011;37253;48.736;9.294;2022-07-22T06:01:36;8.10;;;6.53;;
51190;SDS011;37253;48.736;9.294;2022-07-22T06:03:37;14.57;;;6.38;;
51190;SDS011;37253;48.736;9.294;2022-07-22T06:05:38;11.15;;;6.68;;
51190;SDS011;37253;48.736;9.294;2022-07-22T06:07:38;12.60;;;6.80;;
51190;SDS011;37253;48.736;9.294;2022-07-22T06:09:38;87.93;;;14.63;;
51190;SDS011;37253;48.736;9.294;2022-07-22T06:11:39;35.22;;;9.50;;
51190;SDS011;37253;48.736;9.294;2022-07-22T06:13:39;11.18;;;7.68;;
51190;SDS011;37253;48.736;9.294;2022-07-22T06:15:39;10.43;;;6.95;;
51190;SDS011;37253;48.736;9.294;2022-07-22T06:17:40;9.48;;;6.82;;
51190;SDS011;37253;48.736;9.294;2022-07-22T06:19:40;10.05;;;7.13;;
51190;SDS011;37253;48.736;9.294;2022-07-22T06:21:41;9.82;;;7.07;;
51190;SDS011;37253;48.736;9.294;2022-07-22T06:23:41;10.52;;;7.72;;
51190;SDS011;37253;48.736;9.294;2022-07-22T06:25:41;9.35;;;7.05;;
51190;SDS011;37253;48.736;9.294;2022-07-22T06:27:42;11.75;;;7.13;;
51190;SDS011;37253;48.736;9.294;2022-07-22T06:29:42;27.05;;;8.73;;
51190;SDS011;37253;48.736;9.294;2022-07-22T06:31:42;54.42;;;11.90;;
51190;SDS011;37253;48.736;9.294;2022-07-22T06:33:43;27.83;;;9.35;;
51190;SDS011;37253;48.736;9.294;2022-07-22T06:35:43;16.75;;;7.65;;
51190;SDS011;37253;48.736;9.294;2022-07-22T06:37:43;14.45;;;8.20;;
51190;SDS011;37253;48.736;9.294;2022-07-22T06:39:44;11.00;;;7.53;;
51190;SDS011;37253;48.736;9.294;2022-07-22T06:41:46;10.23;;;7.70;;
51190;SDS011;37253;48.736;9.294;2022-07-22T06:43:47;10.40;;;7.95;;
51190;SDS011;37253;48.736;9.294;2022-07-22T06:45:47;11.35;;;7.55;;
51190;SDS011;37253;48.736;9.294;2022-07-22T06:47:48;8.25;;;6.85;;
51190;SDS011;37253;48.736;9.294;2022-07-22T06:49:48;9.40;;;7.20;;
51190;SDS011;37253;48.736;9.294;2022-07-22T06:51:48;8.85;;;7.38;;
51190;SDS011;37253;48.736;9.294;2022-07-22T06:53:49;10.25;;;7.70;;
51190;SDS011;37253;48.736;9.294;2022-07-22T06:55:49;14.57;;;7.60;;
51190;SDS011;37253;48.736;9.294;2022-07-22T06:57:50;11.82;;;7.90;;
51190;SDS011;37253;48.736;9.294;2022-07-22T06:59:50;8.90;;;7.43;;
51190;SDS011;37253;48.736;9.294;2022-07-22T07:01:50;9.95;;;7.53;;
51190;SDS011;37253;48.736;9.294;2022-07-22T07:03:51;8.80;;;7.15;;
51190;SDS011;37253;48.736;9.294;2022-07-22T07:05:51;8.80;;;7.47;;
51190;SDS011;37253;48.736;9.294;2022-07-22T07:07:52;10.20;;;7.47;;
51190;SDS011;37253;48.736;9.294;2022-07-22T07:09:52;11.63;;;7.32;;
51190;SDS011;37253;48.736;9.294;2022-07-22T07:11:52;11.40;;;7.50;;
51190;SDS011;37253;48.736;9.294;2022-07-22T07:13:53;11.30;;;7.93;;
51190;SDS011;37253;48.736;9.294;2022-07-22T07:15:53;10.15;;;7.78;;
51190;SDS011;37253;48.736;9.294;2022-07-22T07:17:54;10.63;;;8.18;;
51190;SDS011;37253;48.736;9.294;2022-07-22T07:19:56;15.37;;;8.13;;
51190;SDS011;37253;48.736;9.294;2022-07-22T07:21:56;12.27;;;7.20;;
51190;SDS011;37253;48.736;9.294;2022-07-22T07:23:56;12.43;;;7.97;;
51190;SDS011;37253;48.736;9.294;2022-07-22T07:25:57;9.38;;;7.40;;
51190;SDS011;37253;48.736;9.294;2022-07-22T07:27:57;13.57;;;7.53;;
51190;SDS011;37253;48.736;9.294;2022-07-22T07:29:57;13.75;;;7.50;;
51190;SDS011;37253;48.736;9.294;2022-07-22T07:31:58;12.35;;;7.35;;
51190;SDS011;37253;48.736;9.294;2022-07-22T07:33:58;10.43;;;7.63;;
51190;SDS011;37253;48.736;9.294;2022-07-22T07:35:58;12.80;;;7.05;;
51190;SDS011;37253;48.736;9.294;2022-07-22T07:37:59;15.82;;;7.80;;
51190;SDS011;37253;48.736;9.294;2022-07-22T07:39:59;8.90;;;6.90;;
51190;SDS011;37253;48.736;9.294;2022-07-22T07:42:00;10.07;;;6.93;;
51190;SDS011;37253;48.736;9.294;2022-07-22T07:44:00;11.45;;;7.57;;
51190;SDS011;37253;48.736;9.294;2022-07-22T07:46:00;10.23;;;6.75;;
51190;SDS011;37253;48.736;9.294;2022-07-22T07:48:01;10.88;;;7.13;;
51190;SDS011;37253;48.736;9.294;2022-07-22T07:50:03;10.75;;;6.82;;
51190;SDS011;37253;48.736;9.294;2022-07-22T07:52:04;9.75;;;6.57;;
51190;SDS011;37253;48.736;9.294;2022-07-22T07:54:05;11.27;;;6.53;;
51190;SDS011;37253;48.736;9.294;2022-07-22T07:56:05;10.98;;;6.75;;
51190;SDS011;37253;48.736;9.294;2022-07-22T07:58:06;8.80;;;6.82;;
51190;SDS011;37253;48.736;9.294;2022-07-22T08:00:07;13.73;;;7.28;;
51190;SDS011;37253;48.736;9.294;2022-07-22T08:04:09;9.43;;;6.15;;
51190;SDS011;37253;48.736;9.294;2022-07-22T08:06:10;17.70;;;6.75;;
51190;SDS011;37253;48.736;9.294;2022-07-22T08:08:10;8.90;;;6.38;;
51190;SDS011;37253;48.736;9.294;2022-07-22T08:10:10;9.77;;;5.97;;
51190;SDS011;37253;48.736;9.294;2022-07-22T08:12:11;11.98;;;6.30;;
51190;SDS011;37253;48.736;9.294;2022-07-22T08:14:11;14.27;;;6.07;;
51190;SDS011;37253;48.736;9.294;2022-07-22T08:16:12;10.65;;;6.57;;
51190;SDS011;37253;48.736;9.294;2022-07-22T08:18:12;10.02;;;6.32;;
51190;SDS011;37253;48.736;9.294;2022-07-22T08:20:12;9.85;;;6.57;;
51190;SDS011;37253;48.736;9.294;2022-07-22T08:22:13;8.82;;;6.63;;
51190;SDS011;37253;48.736;9.294;2022-07-22T08:24:13;9.73;;;6.47;;
51190;SDS011;37253;48.736;9.294;2022-07-22T08:26:13;12.30;;;5.95;;
51190;SDS011;37253;48.736;9.294;2022-07-22T08:28:14;9.45;;;6.20;;
51190;SDS011;37253;48.736;9.294;2022-07-22T08:30:14;11.52;;;6.75;;
51190;SDS011;37253;48.736;9.294;2022-07-22T08:32:15;10.85;;;6.00;;
51190;SDS011;37253;48.736;9.294;2022-07-22T08:34:16;7.22;;;6.45;;
51190;SDS011;37253;48.736;9.294;2022-07-22T08:36:16;8.07;;;6.07;;
51190;SDS011;37253;48.736;9.294;2022-07-22T08:38:16;9.57;;;6.47;;
51190;SDS011;37253;48.736;9.294;2022-07-22T08:40:17;10.25;;;6.40;;
51190;SDS011;37253;48.736;9.294;2022-07-22T08:42:17;8.85;;;6.00;;
51190;SDS011;37253;48.736;9.294;2022-07-22T08:44:18;8.77;;;6.38;;
51190;SDS011;37253;48.736;9.294;2022-07-22T08:46:18;10.15;;;6.55;;
51190;SDS011;37253;48.736;9.294;2022-07-22T08:48:19;7.78;;;6.50;;
51190;SDS011;37253;48.736;9.294;2022-07-22T08:50:19;7.70;;;6.03;;
51190;SDS011;37253;48.736;9.294;2022-07-22T08:52:19;6.78;;;6.05;;
51190;SDS011;37253;48.736;9.294;2022-07-22T08:54:20;7.20;;;6.50;;
51190;SDS011;37253;48.736;9.294;2022-07-22T08:56:20;10.75;;;5.80;;
51190;SDS011;37253;48.736;9.294;2022-07-22T08:58:20;8.80;;;6.45;;
51190;SDS011;37253;48.736;9.294;2022-07-22T09:00:21;9.38;;;6.68;;
51190;SDS011;37253;48.736;9.294;2022-07-22T09:02:22;8.20;;;6.50;;
51190;SDS011;37253;48.736;9.294;2022-07-22T09:04:23;8.82;;;6.72;;
51190;SDS011;37253;48.736;9.294;2022-07-22T09:06:24;7.10;;;6.40;;
51190;SDS011;37253;48.736;9.294;2022-07-22T09:08:25;21.15;;;7.03;;
51190;SDS011;37253;48.736;9.294;2022-07-22T09:10:29;12.50;;;6.55;;
51190;SDS011;37253;48.736;9.294;2022-07-22T09:12:31;9.63;;;6.30;;
51190;SDS011;37253;48.736;9.294;2022-07-22T09:14:47;9.10;;;6.68;;
51190;SDS011;37253;48.736;9.294;2022-07-22T09:16:49;7.70;;;6.43;;
51190;SDS011;37253;48.736;9.294;2022-07-22T09:18:51;11.02;;;6.47;;
51190;SDS011;37253;48.736;9.294;2022-07-22T09:20:58;9.10;;;6.70;;
51190;SDS011;37253;48.736;9.294;2022-07-22T09:22:59;8.82;;;6.03;;
51190;SDS011;37253;48.736;9.294;2022-07-22T09:27:30;10.70;;;6.55;;
51190;SDS011;37253;48.736;9.294;2022-07-22T09:29:30;6.93;;;6.28;;
51190;SDS011;37253;48.736;9.294;2022-07-22T09:31:35;7.45;;;6.75;;
51190;SDS011;37253;48.736;9.294;2022-07-22T09:33:36;7.53;;;6.72;;
51190;SDS011;37253;48.736;9.294;2022-07-22T09:35:37;6.78;;;6.13;;
51190;SDS011;37253;48.736;9.294;2022-07-22T09:39:53;6.93;;;6.22;;
51190;SDS011;37253;48.736;9.294;2022-07-22T09:42:00;6.70;;;6.05;;
51190;SDS011;37253;48.736;9.294;2022-07-22T09:44:24;8.10;;;6.20;;
51190;SDS011;37253;48.736;9.294;2022-07-22T09:46:36;8.13;;;6.45;;
51190;SDS011;37253;48.736;9.294;2022-07-22T09:50:38;9.52;;;6.68;;
51190;SDS011;37253;48.736;9.294;2022-07-22T09:52:38;7.18;;;5.53;;
51190;SDS011;37253;48.736;9.294;2022-07-22T09:54:40;8.20;;;6.47;;
51190;SDS011;37253;48.736;9.294;2022-07-22T09:56:41;7.47;;;6.70;;
51190;SDS011;37253;48.736;9.294;2022-07-22T09:58:41;8.55;;;6.43;;
51190;SDS011;37253;48.736;9.294;2022-07-22T10:00:42;7.13;;;6.43;;
51190;SDS011;37253;48.736;9.294;2022-07-22T10:02:47;7.97;;;6.70;;
51190;SDS011;37253;48.736;9.294;2022-07-22T10:04:55;6.68;;;6.00;;
51190;SDS011;37253;48.736;9.294;2022-07-22T10:06:56;7.18;;;6.47;;
51190;SDS011;37253;48.736;9.294;2022-07-22T10:08:56;7.13;;;6.47;;
51190;SDS011;37253;48.736;9.294;2022-07-22T10:11:02;9.52;;;6.32;;
51190;SDS011;37253;48.736;9.294;2022-07-22T10:13:04;6.93;;;6.22;;
51190;SDS011;37253;48.736;9.294;2022-07-22T10:15:06;8.75;;;6.22;;
51190;SDS011;37253;48.736;9.294;2022-07-22T10:17:07;7.93;;;6.80;;
51190;SDS011;37253;48.736;9.294;2022-07-22T10:19:08;7.70;;;6.13;;
51190;SDS011;37253;48.736;9.294;2022-07-22T10:21:09;8.02;;;5.78;;
51190;SDS011;37253;48.736;9.294;2022-07-22T10:23:10;6.75;;;6.07;;
51190;SDS011;37253;48.736;9.294;2022-07-22T10:25:12;8.60;;;6.05;;
51190;SDS011;37253;48.736;9.294;2022-07-22T10:27:13;8.73;;;6.25;;
51190;SDS011;37253;48.736;9.294;2022-07-22T10:34:31;8.77;;;6.60;;
51190;SDS011;37253;48.736;9.294;2022-07-22T10:36:33;7.28;;;5.60;;
51190;SDS011;37253;48.736;9.294;2022-07-22T10:38:35;13.25;;;6.47;;
51190;SDS011;37253;48.736;9.294;2022-07-22T10:43:08;12.13;;;6.97;;
51190;SDS011;37253;48.736;9.294;2022-07-22T10:45:09;12.30;;;7.38;;
51190;SDS011;37253;48.736;9.294;2022-07-22T10:47:09;17.23;;;8.23;;
51190;SDS011;37253;48.736;9.294;2022-07-22T10:49:10;10.48;;;7.63;;
51190;SDS011;37253;48.736;9.294;2022-07-22T10:51:13;11.48;;;7.95;;
51190;SDS011;37253;48.736;9.294;2022-07-22T10:53:23;8.02;;;7.10;;
51190;SDS011;37253;48.736;9.294;2022-07-22T10:55:24;11.98;;;8.13;;
51190;SDS011;37253;48.736;9.294;2022-07-22T10:57:31;10.95;;;7.00;;
51190;SDS011;37253;48.736;9.294;2022-07-22T10:59:31;14.57;;;7.63;;
51190;SDS011;37253;48.736;9.294;2022-07-22T11:01:32;12.40;;;7.30;;
51190;SDS011;37253;48.736;9.294;2022-07-22T11:03:32;9.18;;;6.88;;
51190;SDS011;37253;48.736;9.294;2022-07-22T11:05:34;9.95;;;7.43;;
51190;SDS011;37253;48.736;9.294;2022-07-22T11:07:44;13.05;;;7.15;;
51190;SDS011;37253;48.736;9.294;2022-07-22T11:09:45;9.77;;;7.53;;
51190;SDS011;37253;48.736;9.294;2022-07-22T11:13:48;26.00;;;8.23;;
51190;SDS011;37253;48.736;9.294;2022-07-22T11:15:48;13.50;;;7.78;;
51190;SDS011;37253;48.736;9.294;2022-07-22T11:17:48;16.10;;;7.70;;
51190;SDS011;37253;48.736;9.294;2022-07-22T11:19:50;10.75;;;7.50;;
51190;SDS011;37253;48.736;9.294;2022-07-22T11:21:52;12.67;;;7.43;;
51190;SDS011;37253;48.736;9.294;2022-07-22T11:23:57;16.25;;;8.05;;
51190;SDS011;37253;48.736;9.294;2022-07-22T11:25:58;11.93;;;7.43;;
51190;SDS011;37253;48.736;9.294;2022-07-22T11:27:59;12.90;;;7.40;;
51190;SDS011;37253;48.736;9.294;2022-07-22T11:30:00;9.50;;;6.97;;
51190;SDS011;37253;48.736;9.294;2022-07-22T11:32:01;18.13;;;7.10;;
51190;SDS011;37253;48.736;9.294;2022-07-22T11:34:08;10.38;;;7.00;;
51190;SDS011;37253;48.736;9.294;2022-07-22T11:36:09;15.27;;;7.28;;
51190;SDS011;37253;48.736;9.294;2022-07-22T11:38:10;11.95;;;7.75;;
51190;SDS011;37253;48.736;9.294;2022-07-22T11:40:10;9.68;;;7.07;;
51190;SDS011;37253;48.736;9.294;2022-07-22T11:42:12;13.40;;;6.95;;
51190;SDS011;37253;48.736;9.294;2022-07-22T11:44:16;10.13;;;7.22;;
51190;SDS011;37253;48.736;9.294;2022-07-22T11:46:18;10.70;;;6.90;;
51190;SDS011;37253;48.736;9.294;2022-07-22T11:48:19;9.48;;;7.15;;
51190;SDS011;37253;48.736;9.294;2022-07-22T11:50:30;12.80;;;6.97;;
51190;SDS011;37253;48.736;9.294;2022-07-22T11:52:33;10.82;;;6.88;;
51190;SDS011;37253;48.736;9.294;2022-07-22T11:54:33;9.63;;;6.57;;
51190;SDS011;37253;48.736;9.294;2022-07-22T11:56:34;7.57;;;6.70;;
51190;SDS011;37253;48.736;9.294;2022-07-22T11:58:56;9.70;;;6.80;;
51190;SDS011;37253;48.736;9.294;2022-07-22T12:00:56;10.77;;;7.00;;
51190;SDS011;37253;48.736;9.294;2022-07-22T12:02:56;7.38;;;6.30;;
51190;SDS011;37253;48.736;9.294;2022-07-22T12:04:57;13.68;;;7.05;;
51190;SDS011;37253;48.736;9.294;2022-07-22T12:06:58;12.05;;;6.53;;
51190;SDS011;37253;48.736;9.294;2022-07-22T12:11:04;11.32;;;7.28;;
51190;SDS011;37253;48.736;9.294;2022-07-22T12:13:04;8.38;;;6.40;;
51190;SDS011;37253;48.736;9.294;2022-07-22T12:15:05;8.15;;;6.88;;
51190;SDS011;37253;48.736;9.294;2022-07-22T12:17:07;13.95;;;7.05;;
51190;SDS011;37253;48.736;9.294;2022-07-22T12:21:11;7.18;;;6.40;;
51190;SDS011;37253;48.736;9.294;2022-07-22T12:23:11;12.75;;;7.43;;
51190;SDS011;37253;48.736;9.294;2022-07-22T12:25:12;9.27;;;7.45;;
51190;SDS011;37253;48.736;9.294;2022-07-22T12:27:13;17.42;;;7.88;;